»·PEaware :: N814BG KBUR-KFUL

N814BG :: KBUR-KFUL

FLIGHT INFORMATION

Flight Status: Arrived
Operator: Privately registered:
United States
More flights under this callsign
Pilot: Robert K. (32084)
Aircraft: CIRRUS SR-22
(SR22)
More flights by this aircraft type
Origin: KBUR Bob Hope-Burbank
United States
Destination: KFUL Fullerton Mun
United States
More flights between these airports :: More routes between these airports
Route: KEMT
File this flight plan on PilotEdge
Remarks:
Altitude:
(Current/Filed)
3,500ft
Speed:
(Current/Filed)
130kts
Departed: 21-Nov-20 12:12 PM
Arrived: 21-Nov-20 12:36 PM
Distance/Time
Traveled:
27nm/0:24
Distance/Time
To Go:
Arrived

Flight Plot

Page will automatically refresh every two minutes.


Map Options




Map Legend


Flown Route
Filed Route
Departure Airport
Arrival Airport
Navaid (VOR, NDB)
Fix

Horizontal Profiles

Position Reports

Time Latitude Longitude Heading Altitude Ground
Speed
21-Nov-20 11:48 34.199450 -118.359436 177 722ft 0kts
21-Nov-20 11:49 34.199451 -118.359436 0 717ft 0kts
21-Nov-20 11:50 34.199451 -118.359436 177 717ft 0kts
21-Nov-20 11:51 34.199451 -118.359436 177 717ft 0kts
21-Nov-20 11:52 34.199451 -118.359436 177 717ft 0kts
21-Nov-20 11:53 34.199451 -118.359436 177 717ft 0kts
21-Nov-20 11:54 34.199451 -118.359436 177 717ft 0kts
21-Nov-20 11:55 34.199451 -118.359436 177 717ft 0kts
21-Nov-20 11:56 34.199451 -118.359436 177 717ft 0kts
21-Nov-20 11:57 34.199451 -118.359436 177 717ft 0kts
21-Nov-20 11:58 34.199451 -118.359436 177 717ft 0kts
21-Nov-20 11:59 34.199451 -118.359436 177 717ft 0kts
21-Nov-20 12:00 34.199451 -118.359436 177 717ft 0kts
21-Nov-20 12:01 34.199451 -118.359436 177 717ft 0kts
21-Nov-20 12:02 34.199451 -118.359436 177 717ft 0kts
21-Nov-20 12:03 34.199322 -118.358848 34 717ft 7kts
21-Nov-20 12:04 34.200810 -118.358428 347 723ft 9kts
21-Nov-20 12:05 34.203086 -118.359053 345 730ft 11kts
21-Nov-20 12:06 34.206454 -118.359977 348 751ft 13kts
21-Nov-20 12:07 34.210234 -118.361030 347 775ft 13kts
21-Nov-20 12:08 34.211914 -118.361346 35 781ft 0kts
21-Nov-20 12:09 34.211914 -118.361346 35 781ft 0kts
21-Nov-20 12:11 34.211914 -118.361346 35 781ft 0kts
21-Nov-20 12:12 34.201727 -118.357328 167 856ft 98kts
21-Nov-20 12:13 34.183871 -118.336977 93 1736ft 103kts
21-Nov-20 12:14 34.180200 -118.300912 100 2298ft 120kts
21-Nov-20 12:15 34.173836 -118.264138 101 2533ft 102kts
21-Nov-20 12:16 34.169517 -118.229677 96 3175ft 105kts
21-Nov-20 12:17 34.164443 -118.189287 101 3328ft 130kts
21-Nov-20 12:18 34.148553 -118.150537 129 3342ft 132kts
21-Nov-20 12:19 34.126673 -118.114678 124 3342ft 132kts
21-Nov-20 12:20 34.107009 -118.077176 122 3340ft 133kts
21-Nov-20 12:21 34.090061 -118.043953 123 3340ft 132kts
21-Nov-20 12:22 34.065219 -118.018096 166 3341ft 130kts
21-Nov-20 12:23 34.035321 -118.009316 165 3341ft 131kts
21-Nov-20 12:24 34.003595 -117.995188 158 3335ft 129kts
21-Nov-20 12:24 33.980677 -117.983265 157 3081ft 105kts
21-Nov-20 12:26 33.954704 -117.970973 163 2744ft 105kts
21-Nov-20 12:26 33.934763 -117.964315 167 2590ft 110kts
21-Nov-20 12:28 33.910514 -117.959430 175 2445ft 112kts
21-Nov-20 12:28 33.887959 -117.955092 175 2305ft 117kts
21-Nov-20 12:29 33.871793 -117.980061 247 435ft 120kts
21-Nov-20 12:31 33.862000 -118.014088 250 1572ft 85kts
21-Nov-20 12:31 33.876946 -118.016833 58 1367ft 120kts
21-Nov-20 12:32 33.889266 -117.983712 67 1039ft 101kts
21-Nov-20 12:33 33.891626 -117.955648 159 1120ft 85kts
21-Nov-20 12:34 33.874957 -117.964028 251 480ft 82kts
21-Nov-20 12:35 33.871355 -117.983164 245 83ft 11kts
21-Nov-20 12:36 33.871056 -117.982671 76 85ft 8kts
21-Nov-20 12:37 33.871222 -117.980217 80 92ft 0kts

Navigation Log

Ident Type
Flight plan parsing failed, navigation log unavailable